Capron, Oklahoma
Current Conditions -  °F | °C
As of 1:50 AM on Tuesday 21 Oct 2014 (Local Time) from KAVK Reporting Station
Overcast Overcast  
Wind Chill: 16°   Ceiling: 4400
Heat Index: 16°   Visibility: 10mi
Dew Point: 15°   Wind: 6mph
Humidity: 94%   Direction: 130°SE
Pressure: 30.06"   Gusts: NA
Location:  36.8367°N, 98.8022°W
Report Text: KAVK 210650Z AUTO 13005KT 10SM SCT036 OVC044 16/15 A3006 RMK AO2
Loading
Personal Weather Stations






























Interactive Weather Map
Tropical Storm Tracking
New forecast layout! Learn more

10-Day Weather Forecast

Advertisements
Track Severe Weather on mobile